sensor_id;sensor_type;location;lat;lon;timestamp;pressure;altitude;pressure_sealevel;temperature;humidity
21728;BME280;11026;50.560;17.852;2023-08-08T00:00:48;99228.97;;;13.40;100.00
21728;BME280;11026;50.560;17.852;2023-08-08T00:03:16;99231.53;;;13.42;100.00
21728;BME280;11026;50.560;17.852;2023-08-08T00:05:44;99223.31;;;13.46;100.00
21728;BME280;11026;50.560;17.852;2023-08-08T00:08:12;99225.94;;;13.32;100.00
21728;BME280;11026;50.560;17.852;2023-08-08T00:10:45;99229.53;;;13.31;100.00
21728;BME280;11026;50.560;17.852;2023-08-08T00:13:13;99238.38;;;13.32;100.00
21728;BME280;11026;50.560;17.852;2023-08-08T00:15:40;99235.81;;;13.44;100.00
21728;BME280;11026;50.560;17.852;2023-08-08T00:18:08;99236.38;;;13.35;100.00
21728;BME280;11026;50.560;17.852;2023-08-08T00:20:38;99240.16;;;13.31;100.00
21728;BME280;11026;50.560;17.852;2023-08-08T00:23:05;99233.81;;;13.18;100.00
21728;BME280;11026;50.560;17.852;2023-08-08T00:25:33;99240.88;;;13.19;100.00
21728;BME280;11026;50.560;17.852;2023-08-08T00:28:00;99232.50;;;13.11;100.00
21728;BME280;11026;50.560;17.852;2023-08-08T00:30:28;99237.81;;;13.11;100.00
21728;BME280;11026;50.560;17.852;2023-08-08T00:32:55;99254.91;;;13.21;100.00
21728;BME280;11026;50.560;17.852;2023-08-08T00:35:24;99247.03;;;13.19;100.00
21728;BME280;11026;50.560;17.852;2023-08-08T00:37:51;99234.03;;;13.15;100.00
21728;BME280;11026;50.560;17.852;2023-08-08T00:40:19;99233.81;;;13.18;100.00
21728;BME280;11026;50.560;17.852;2023-08-08T00:42:52;99235.75;;;13.16;100.00
21728;BME280;11026;50.560;17.852;2023-08-08T00:45:20;99252.88;;;13.10;100.00
21728;BME280;11026;50.560;17.852;2023-08-08T00:47:47;99246.72;;;13.10;100.00
21728;BME280;11026;50.560;17.852;2023-08-08T00:50:21;99235.34;;;13.08;100.00
21728;BME280;11026;50.560;17.852;2023-08-08T00:52:48;99249.47;;;13.08;100.00
21728;BME280;11026;50.560;17.852;2023-08-08T00:55:17;99241.59;;;13.07;100.00
21728;BME280;11026;50.560;17.852;2023-08-08T00:57:45;99241.84;;;13.02;100.00
21728;BME280;11026;50.560;17.852;2023-08-08T01:00:13;99247.84;;;13.05;100.00
21728;BME280;11026;50.560;17.852;2023-08-08T01:02:41;99251.34;;;13.06;100.00
21728;BME280;11026;50.560;17.852;2023-08-08T01:05:15;99244.94;;;12.94;100.00
21728;BME280;11026;50.560;17.852;2023-08-08T01:08:02;99258.56;;;13.04;100.00
21728;BME280;11026;50.560;17.852;2023-08-08T01:10:46;99257.03;;;13.00;100.00
21728;BME280;11026;50.560;17.852;2023-08-08T01:13:27;99261.56;;;12.98;100.00
21728;BME280;11026;50.560;17.852;2023-08-08T01:16:13;99262.00;;;12.90;100.00
21728;BME280;11026;50.560;17.852;2023-08-08T01:18:41;99261.06;;;12.91;100.00
21728;BME280;11026;50.560;17.852;2023-08-08T01:21:10;99257.31;;;12.79;100.00
21728;BME280;11026;50.560;17.852;2023-08-08T01:23:42;99261.31;;;12.87;100.00
21728;BME280;11026;50.560;17.852;2023-08-08T01:26:11;99256.38;;;12.80;100.00
21728;BME280;11026;50.560;17.852;2023-08-08T01:28:42;99257.41;;;12.78;100.00
21728;BME280;11026;50.560;17.852;2023-08-08T01:31:11;99259.63;;;12.70;100.00
21728;BME280;11026;50.560;17.852;2023-08-08T01:33:39;99252.44;;;12.72;100.00
21728;BME280;11026;50.560;17.852;2023-08-08T01:36:12;99255.53;;;12.80;100.00
21728;BME280;11026;50.560;17.852;2023-08-08T01:38:44;99258.19;;;12.80;100.00
21728;BME280;11026;50.560;17.852;2023-08-08T01:41:14;99249.38;;;12.64;100.00
21728;BME280;11026;50.560;17.852;2023-08-08T01:43:42;99254.50;;;12.67;100.00
21728;BME280;11026;50.560;17.852;2023-08-08T01:46:10;99241.44;;;12.64;100.00
21728;BME280;11026;50.560;17.852;2023-08-08T01:48:38;99244.75;;;12.67;100.00
21728;BME280;11026;50.560;17.852;2023-08-08T01:51:13;99245.00;;;12.63;100.00
21728;BME280;11026;50.560;17.852;2023-08-08T01:53:40;99250.25;;;12.64;100.00
21728;BME280;11026;50.560;17.852;2023-08-08T01:56:08;99245.78;;;12.65;100.00
21728;BME280;11026;50.560;17.852;2023-08-08T01:58:36;99238.09;;;12.60;100.00
21728;BME280;11026;50.560;17.852;2023-08-08T02:01:04;99241.44;;;12.48;100.00
21728;BME280;11026;50.560;17.852;2023-08-08T02:03:34;99245.09;;;12.45;100.00
21728;BME280;11026;50.560;17.852;2023-08-08T02:06:02;99249.66;;;12.43;100.00
21728;BME280;11026;50.560;17.852;2023-08-08T02:08:29;99241.00;;;12.55;100.00
21728;BME280;11026;50.560;17.852;2023-08-08T02:10:58;99252.31;;;12.43;100.00
21728;BME280;11026;50.560;17.852;2023-08-08T02:13:25;99249.88;;;12.39;100.00
21728;BME280;11026;50.560;17.852;2023-08-08T02:15:53;99248.72;;;12.44;100.00
21728;BME280;11026;50.560;17.852;2023-08-08T02:18:26;99241.69;;;12.43;100.00
21728;BME280;11026;50.560;17.852;2023-08-08T02:20:53;99246.66;;;12.49;100.00
21728;BME280;11026;50.560;17.852;2023-08-08T02:23:22;99249.19;;;12.51;100.00
21728;BME280;11026;50.560;17.852;2023-08-08T02:25:49;99250.31;;;12.63;100.00
21728;BME280;11026;50.560;17.852;2023-08-08T02:28:18;99259.31;;;12.60;100.00
21728;BME280;11026;50.560;17.852;2023-08-08T02:30:46;99264.47;;;12.47;100.00
21728;BME280;11026;50.560;17.852;2023-08-08T02:33:15;99256.72;;;12.59;100.00
21728;BME280;11026;50.560;17.852;2023-08-08T02:35:50;99270.25;;;12.54;100.00
21728;BME280;11026;50.560;17.852;2023-08-08T02:38:18;99262.22;;;12.71;100.00
21728;BME280;11026;50.560;17.852;2023-08-08T02:40:46;99255.97;;;12.57;100.00
21728;BME280;11026;50.560;17.852;2023-08-08T02:43:13;99261.19;;;12.58;100.00
21728;BME280;11026;50.560;17.852;2023-08-08T02:45:41;99264.34;;;12.65;100.00
21728;BME280;11026;50.560;17.852;2023-08-08T02:48:09;99256.56;;;12.62;100.00
21728;BME280;11026;50.560;17.852;2023-08-08T02:50:37;99257.22;;;12.81;100.00
21728;BME280;11026;50.560;17.852;2023-08-08T02:53:05;99255.53;;;12.80;100.00
21728;BME280;11026;50.560;17.852;2023-08-08T02:55:36;99264.75;;;12.89;100.00
21728;BME280;11026;50.560;17.852;2023-08-08T02:58:04;99266.28;;;12.93;100.00
21728;BME280;11026;50.560;17.852;2023-08-08T03:00:32;99263.78;;;12.90;100.00
21728;BME280;11026;50.560;17.852;2023-08-08T03:02:59;99263.22;;;12.85;100.00
21728;BME280;11026;50.560;17.852;2023-08-08T03:05:28;99270.59;;;12.79;100.00
21728;BME280;11026;50.560;17.852;2023-08-08T03:07:55;99267.00;;;12.80;100.00
21728;BME280;11026;50.560;17.852;2023-08-08T03:10:22;99269.47;;;12.84;100.00
21728;BME280;11026;50.560;17.852;2023-08-08T03:12:50;99277.72;;;12.79;100.00
21728;BME280;11026;50.560;17.852;2023-08-08T03:15:17;99275.22;;;12.76;100.00
21728;BME280;11026;50.560;17.852;2023-08-08T03:17:45;99276.00;;;12.62;100.00
21728;BME280;11026;50.560;17.852;2023-08-08T03:20:14;99286.53;;;12.64;100.00
21728;BME280;11026;50.560;17.852;2023-08-08T03:22:42;99285.69;;;12.47;100.00
21728;BME280;11026;50.560;17.852;2023-08-08T03:25:10;99283.25;;;12.59;100.00
21728;BME280;11026;50.560;17.852;2023-08-08T03:27:39;99291.16;;;12.44;100.00
21728;BME280;11026;50.560;17.852;2023-08-08T03:30:21;99270.88;;;12.27;100.00
21728;BME280;11026;50.560;17.852;2023-08-08T03:32:50;99278.31;;;12.21;100.00
21728;BME280;11026;50.560;17.852;2023-08-08T03:35:18;99285.84;;;12.28;100.00
21728;BME280;11026;50.560;17.852;2023-08-08T03:37:46;99293.06;;;12.09;100.00
21728;BME280;11026;50.560;17.852;2023-08-08T03:40:14;99284.13;;;12.12;100.00
21728;BME280;11026;50.560;17.852;2023-08-08T03:42:44;99297.09;;;12.00;100.00
21728;BME280;11026;50.560;17.852;2023-08-08T03:45:11;99302.44;;;11.99;100.00
21728;BME280;11026;50.560;17.852;2023-08-08T03:47:40;99301.16;;;11.90;100.00
21728;BME280;11026;50.560;17.852;2023-08-08T03:50:08;99307.25;;;11.92;100.00
21728;BME280;11026;50.560;17.852;2023-08-08T03:52:36;99307.06;;;11.95;100.00
21728;BME280;11026;50.560;17.852;2023-08-08T03:55:04;99313.66;;;11.88;100.00
21728;BME280;11026;50.560;17.852;2023-08-08T03:57:44;99326.69;;;12.09;100.00
21728;BME280;11026;50.560;17.852;2023-08-08T04:00:12;99325.31;;;12.01;100.00
21728;BME280;11026;50.560;17.852;2023-08-08T04:02:39;99330.25;;;12.07;100.00
21728;BME280;11026;50.560;17.852;2023-08-08T04:05:07;99328.56;;;12.06;100.00
21728;BME280;11026;50.560;17.852;2023-08-08T04:07:35;99345.81;;;11.98;100.00
21728;BME280;11026;50.560;17.852;2023-08-08T04:10:04;99339.16;;;12.06;100.00
21728;BME280;11026;50.560;17.852;2023-08-08T04:12:31;99346.00;;;12.11;100.00
21728;BME280;11026;50.560;17.852;2023-08-08T04:15:02;99343.28;;;12.12;100.00
21728;BME280;11026;50.560;17.852;2023-08-08T04:17:29;99351.16;;;12.14;100.00
21728;BME280;11026;50.560;17.852;2023-08-08T04:19:57;99352.53;;;12.21;100.00
21728;BME280;11026;50.560;17.852;2023-08-08T04:22:25;99355.53;;;12.30;100.00
21728;BME280;11026;50.560;17.852;2023-08-08T04:24:53;99359.16;;;12.29;100.00
21728;BME280;11026;50.560;17.852;2023-08-08T04:27:20;99358.75;;;12.37;100.00
21728;BME280;11026;50.560;17.852;2023-08-08T04:29:48;99356.84;;;12.39;100.00
21728;BME280;11026;50.560;17.852;2023-08-08T04:32:16;99357.53;;;12.43;100.00
21728;BME280;11026;50.560;17.852;2023-08-08T04:34:45;99362.00;;;12.42;100.00
21728;BME280;11026;50.560;17.852;2023-08-08T04:37:12;99359.72;;;12.52;100.00
21728;BME280;11026;50.560;17.852;2023-08-08T04:39:40;99364.91;;;12.53;100.00
21728;BME280;11026;50.560;17.852;2023-08-08T04:42:17;99359.28;;;12.60;100.00
21728;BME280;11026;50.560;17.852;2023-08-08T04:44:44;99359.19;;;12.61;100.00
21728;BME280;11026;50.560;17.852;2023-08-08T04:47:13;99356.03;;;12.70;100.00
21728;BME280;11026;50.560;17.852;2023-08-08T04:49:40;99364.41;;;12.63;100.00
21728;BME280;11026;50.560;17.852;2023-08-08T04:52:10;99360.22;;;12.74;100.00
21728;BME280;11026;50.560;17.852;2023-08-08T04:54:37;99375.13;;;12.77;100.00
21728;BME280;11026;50.560;17.852;2023-08-08T04:57:05;99373.31;;;12.93;100.00
21728;BME280;11026;50.560;17.852;2023-08-08T04:59:32;99377.53;;;12.97;100.00
21728;BME280;11026;50.560;17.852;2023-08-08T05:01:59;99385.16;;;13.03;100.00
21728;BME280;11026;50.560;17.852;2023-08-08T05:04:30;99374.16;;;13.10;100.00
21728;BME280;11026;50.560;17.852;2023-08-08T05:06:57;99388.31;;;13.26;100.00
21728;BME280;11026;50.560;17.852;2023-08-08T05:09:25;99398.19;;;13.24;100.00
21728;BME280;11026;50.560;17.852;2023-08-08T05:11:55;99381.38;;;13.39;100.00
21728;BME280;11026;50.560;17.852;2023-08-08T05:14:22;99394.91;;;13.50;98.75
21728;BME280;11026;50.560;17.852;2023-08-08T05:16:50;99397.19;;;13.57;97.99
21728;BME280;11026;50.560;17.852;2023-08-08T05:19:17;99394.34;;;13.60;97.01
21728;BME280;11026;50.560;17.852;2023-08-08T05:21:45;99397.00;;;13.60;95.72
21728;BME280;11026;50.560;17.852;2023-08-08T05:24:12;99388.03;;;13.76;95.54
21728;BME280;11026;50.560;17.852;2023-08-08T05:26:41;99390.00;;;13.73;95.27
21728;BME280;11026;50.560;17.852;2023-08-08T05:29:08;99393.91;;;13.82;94.68
21728;BME280;11026;50.560;17.852;2023-08-08T05:31:36;99414.66;;;13.91;93.82
21728;BME280;11026;50.560;17.852;2023-08-08T05:34:03;99409.34;;;13.91;93.30
21728;BME280;11026;50.560;17.852;2023-08-08T05:36:31;99396.00;;;14.07;93.94
21728;BME280;11026;50.560;17.852;2023-08-08T05:39:00;99402.25;;;14.06;93.61
21728;BME280;11026;50.560;17.852;2023-08-08T05:41:29;99407.38;;;14.09;93.11
21728;BME280;11026;50.560;17.852;2023-08-08T05:43:56;99405.31;;;14.14;92.91
21728;BME280;11026;50.560;17.852;2023-08-08T05:46:23;99399.13;;;14.13;92.16
21728;BME280;11026;50.560;17.852;2023-08-08T05:48:51;99414.81;;;14.32;93.15
21728;BME280;11026;50.560;17.852;2023-08-08T05:51:18;99404.16;;;14.32;89.50
21728;BME280;11026;50.560;17.852;2023-08-08T05:53:46;99408.84;;;14.43;91.56
21728;BME280;11026;50.560;17.852;2023-08-08T05:56:14;99404.94;;;14.48;90.38
21728;BME280;11026;50.560;17.852;2023-08-08T05:58:42;99407.22;;;14.69;88.60
21728;BME280;11026;50.560;17.852;2023-08-08T06:01:09;99392.50;;;14.78;88.64
21728;BME280;11026;50.560;17.852;2023-08-08T06:03:38;99396.19;;;14.89;87.77
21728;BME280;11026;50.560;17.852;2023-08-08T06:06:06;99396.47;;;14.99;86.57
21728;BME280;11026;50.560;17.852;2023-08-08T06:08:34;99400.38;;;14.93;84.78
21728;BME280;11026;50.560;17.852;2023-08-08T06:11:02;99389.63;;;14.95;85.56
21728;BME280;11026;50.560;17.852;2023-08-08T06:13:29;99393.28;;;15.07;83.86
21728;BME280;11026;50.560;17.852;2023-08-08T06:15:57;99390.53;;;15.08;82.16
21728;BME280;11026;50.560;17.852;2023-08-08T06:18:24;99390.44;;;15.10;81.19
21728;BME280;11026;50.560;17.852;2023-08-08T06:20:52;99394.44;;;15.03;81.25
21728;BME280;11026;50.560;17.852;2023-08-08T06:23:19;99403.00;;;15.08;80.22
21728;BME280;11026;50.560;17.852;2023-08-08T06:25:47;99400.78;;;15.14;79.75
21728;BME280;11026;50.560;17.852;2023-08-08T06:28:16;99405.88;;;15.32;81.49
21728;BME280;11026;50.560;17.852;2023-08-08T06:30:44;99408.44;;;15.33;78.31
21728;BME280;11026;50.560;17.852;2023-08-08T06:33:11;99408.31;;;15.49;77.52
21728;BME280;11026;50.560;17.852;2023-08-08T06:35:39;99398.34;;;15.65;77.35
21728;BME280;11026;50.560;17.852;2023-08-08T06:38:06;99384.53;;;15.59;76.72
21728;BME280;11026;50.560;17.852;2023-08-08T06:40:34;99403.19;;;15.59;76.35
21728;BME280;11026;50.560;17.852;2023-08-08T06:43:01;99399.97;;;15.68;75.49
21728;BME280;11026;50.560;17.852;2023-08-08T06:45:29;99413.38;;;15.66;77.14
21728;BME280;11026;50.560;17.852;2023-08-08T06:47:56;99400.84;;;15.94;77.00
21728;BME280;11026;50.560;17.852;2023-08-08T06:50:24;99399.34;;;15.77;74.05
21728;BME280;11026;50.560;17.852;2023-08-08T06:52:51;99399.84;;;15.69;72.71
21728;BME280;11026;50.560;17.852;2023-08-08T06:55:19;99403.72;;;15.64;73.64
21728;BME280;11026;50.560;17.852;2023-08-08T06:57:46;99391.19;;;15.66;72.57
21728;BME280;11026;50.560;17.852;2023-08-08T07:00:14;99400.06;;;15.79;74.18
21728;BME280;11026;50.560;17.852;2023-08-08T07:02:43;99408.34;;;16.02;74.31
21728;BME280;11026;50.560;17.852;2023-08-08T07:05:11;99399.88;;;15.95;72.08
21728;BME280;11026;50.560;17.852;2023-08-08T07:07:40;99401.38;;;15.99;70.82
21728;BME280;11026;50.560;17.852;2023-08-08T07:10:09;99405.28;;;16.08;71.50
21728;BME280;11026;50.560;17.852;2023-08-08T07:12:38;99403.78;;;16.04;70.47
21728;BME280;11026;50.560;17.852;2023-08-08T07:15:09;99398.53;;;16.15;69.74
21728;BME280;11026;50.560;17.852;2023-08-08T07:17:36;99401.09;;;16.29;70.08
21728;BME280;11026;50.560;17.852;2023-08-08T07:20:05;99406.34;;;16.43;67.60
21728;BME280;11026;50.560;17.852;2023-08-08T07:22:33;99407.59;;;16.51;67.82
21728;BME280;11026;50.560;17.852;2023-08-08T07:25:00;99398.84;;;16.48;67.20
21728;BME280;11026;50.560;17.852;2023-08-08T07:27:28;99392.22;;;16.67;64.84
21728;BME280;11026;50.560;17.852;2023-08-08T07:29:55;99388.28;;;16.34;64.68
21728;BME280;11026;50.560;17.852;2023-08-08T07:32:23;99404.41;;;16.20;66.41
21728;BME280;11026;50.560;17.852;2023-08-08T07:34:50;99393.94;;;16.55;66.13
21728;BME280;11026;50.560;17.852;2023-08-08T07:37:18;99398.00;;;16.74;64.42
21728;BME280;11026;50.560;17.852;2023-08-08T07:39:52;99389.38;;;16.94;65.37
21728;BME280;11026;50.560;17.852;2023-08-08T07:42:20;99384.88;;;17.07;64.09
21728;BME280;11026;50.560;17.852;2023-08-08T07:44:47;99379.81;;;16.91;64.33
21728;BME280;11026;50.560;17.852;2023-08-08T07:47:15;99396.34;;;16.96;65.34
21728;BME280;11026;50.560;17.852;2023-08-08T07:49:43;99389.88;;;16.50;64.48
21728;BME280;11026;50.560;17.852;2023-08-08T07:52:10;99406.53;;;16.15;65.41
21728;BME280;11026;50.560;17.852;2023-08-08T07:54:41;99400.34;;;16.27;66.35
21728;BME280;11026;50.560;17.852;2023-08-08T07:57:10;99394.66;;;16.57;66.88
21728;BME280;11026;50.560;17.852;2023-08-08T07:59:39;99410.16;;;16.78;64.09
21728;BME280;11026;50.560;17.852;2023-08-08T08:02:06;99389.50;;;16.92;62.10
21728;BME280;11026;50.560;17.852;2023-08-08T08:04:35;99399.69;;;16.87;62.02
21728;BME280;11026;50.560;17.852;2023-08-08T08:07:03;99392.84;;;16.83;60.10
21728;BME280;11026;50.560;17.852;2023-08-08T08:09:32;99391.59;;;16.76;62.84
21728;BME280;11026;50.560;17.852;2023-08-08T08:11:59;99389.72;;;16.89;63.62
21728;BME280;11026;50.560;17.852;2023-08-08T08:14:28;99393.75;;;17.08;63.40
21728;BME280;11026;50.560;17.852;2023-08-08T08:16:56;99394.19;;;17.02;63.56
21728;BME280;11026;50.560;17.852;2023-08-08T08:19:23;99382.34;;;16.93;62.36
21728;BME280;11026;50.560;17.852;2023-08-08T08:21:51;99395.84;;;16.91;62.94
21728;BME280;11026;50.560;17.852;2023-08-08T08:24:20;99390.47;;;16.91;63.77
21728;BME280;11026;50.560;17.852;2023-08-08T08:26:48;99391.34;;;16.66;61.26
21728;BME280;11026;50.560;17.852;2023-08-08T08:29:15;99398.94;;;16.60;60.62
21728;BME280;11026;50.560;17.852;2023-08-08T08:31:42;99393.38;;;16.88;63.33
21728;BME280;11026;50.560;17.852;2023-08-08T08:34:12;99395.50;;;16.96;61.95
21728;BME280;11026;50.560;17.852;2023-08-08T08:36:39;99405.06;;;17.11;61.19
21728;BME280;11026;50.560;17.852;2023-08-08T08:39:07;99392.34;;;17.02;60.11
21728;BME280;11026;50.560;17.852;2023-08-08T08:41:36;99412.00;;;17.14;60.92
21728;BME280;11026;50.560;17.852;2023-08-08T08:44:05;99396.78;;;17.27;61.40
21728;BME280;11026;50.560;17.852;2023-08-08T08:46:35;99390.28;;;17.66;60.86
21728;BME280;11026;50.560;17.852;2023-08-08T08:49:05;99379.31;;;17.82;60.79
21728;BME280;11026;50.560;17.852;2023-08-08T08:51:38;99387.06;;;17.61;57.82
21728;BME280;11026;50.560;17.852;2023-08-08T08:54:09;99390.03;;;17.45;59.45
21728;BME280;11026;50.560;17.852;2023-08-08T08:56:37;99393.91;;;17.41;59.22
21728;BME280;11026;50.560;17.852;2023-08-08T08:59:07;99393.69;;;17.44;59.47
21728;BME280;11026;50.560;17.852;2023-08-08T09:01:34;99399.19;;;17.30;59.95
21728;BME280;11026;50.560;17.852;2023-08-08T09:04:03;99395.09;;;17.13;60.14
21728;BME280;11026;50.560;17.852;2023-08-08T09:06:31;99410.38;;;16.87;58.01
21728;BME280;11026;50.560;17.852;2023-08-08T09:09:01;99412.97;;;16.76;58.88
21728;BME280;11026;50.560;17.852;2023-08-08T09:11:48;99389.59;;;17.04;57.69
21728;BME280;11026;50.560;17.852;2023-08-08T09:14:22;99409.41;;;16.88;58.37
21728;BME280;11026;50.560;17.852;2023-08-08T09:16:50;99397.66;;;16.78;58.97
21728;BME280;11026;50.560;17.852;2023-08-08T09:19:21;99401.34;;;17.01;60.58
21728;BME280;11026;50.560;17.852;2023-08-08T09:21:49;99403.72;;;16.93;59.28
21728;BME280;11026;50.560;17.852;2023-08-08T09:24:17;99396.41;;;17.08;57.94
21728;BME280;11026;50.560;17.852;2023-08-08T09:26:45;99403.31;;;17.47;58.52
21728;BME280;11026;50.560;17.852;2023-08-08T09:29:14;99411.56;;;17.68;57.58
21728;BME280;11026;50.560;17.852;2023-08-08T09:31:42;99402.56;;;17.69;58.10
21728;BME280;11026;50.560;17.852;2023-08-08T09:34:09;99411.16;;;17.61;56.37
21728;BME280;11026;50.560;17.852;2023-08-08T09:36:37;99414.13;;;17.45;57.62
21728;BME280;11026;50.560;17.852;2023-08-08T09:39:07;99409.50;;;17.24;56.82
21728;BME280;11026;50.560;17.852;2023-08-08T09:41:41;99413.88;;;17.49;57.21
21728;BME280;11026;50.560;17.852;2023-08-08T09:44:09;99421.91;;;17.49;58.40
21728;BME280;11026;50.560;17.852;2023-08-08T09:46:37;99408.59;;;17.60;57.08
21728;BME280;11026;50.560;17.852;2023-08-08T09:49:06;99402.31;;;17.72;57.75
21728;BME280;11026;50.560;17.852;2023-08-08T09:51:33;99411.28;;;17.60;55.96
21728;BME280;11026;50.560;17.852;2023-08-08T09:54:04;99397.34;;;17.43;56.54
21728;BME280;11026;50.560;17.852;2023-08-08T09:56:34;99400.31;;;17.52;56.26
21728;BME280;11026;50.560;17.852;2023-08-08T09:59:01;99400.72;;;17.93;56.44
21728;BME280;11026;50.560;17.852;2023-08-08T10:01:31;99396.28;;;18.16;55.89
21728;BME280;11026;50.560;17.852;2023-08-08T10:03:59;99403.25;;;18.30;56.55
21728;BME280;11026;50.560;17.852;2023-08-08T10:06:28;99391.94;;;18.27;55.47
21728;BME280;11026;50.560;17.852;2023-08-08T10:08:55;99401.84;;;18.71;57.24
21728;BME280;11026;50.560;17.852;2023-08-08T10:11:23;99397.78;;;18.65;55.16
21728;BME280;11026;50.560;17.852;2023-08-08T10:13:53;99390.38;;;18.91;53.18
21728;BME280;11026;50.560;17.852;2023-08-08T10:16:22;99394.28;;;18.65;53.01
21728;BME280;11026;50.560;17.852;2023-08-08T10:18:59;99398.88;;;18.29;54.51
21728;BME280;11026;50.560;17.852;2023-08-08T10:21:26;99392.50;;;18.19;54.38
21728;BME280;11026;50.560;17.852;2023-08-08T10:24:06;99400.34;;;18.67;56.08
21728;BME280;11026;50.560;17.852;2023-08-08T10:26:50;99380.41;;;18.71;53.02
21728;BME280;11026;50.560;17.852;2023-08-08T10:29:20;99395.50;;;18.72;52.34
21728;BME280;11026;50.560;17.852;2023-08-08T10:31:53;99389.63;;;18.67;52.80
21728;BME280;11026;50.560;17.852;2023-08-08T10:34:23;99403.00;;;18.56;52.79
21728;BME280;11026;50.560;17.852;2023-08-08T10:36:55;99392.81;;;18.95;50.83
21728;BME280;11026;50.560;17.852;2023-08-08T10:39:24;99380.91;;;19.31;52.97
21728;BME280;11026;50.560;17.852;2023-08-08T10:41:52;99377.13;;;19.33;51.48
21728;BME280;11026;50.560;17.852;2023-08-08T10:44:25;99383.28;;;19.13;52.10
21728;BME280;11026;50.560;17.852;2023-08-08T10:46:53;99368.69;;;18.83;52.75
21728;BME280;11026;50.560;17.852;2023-08-08T10:49:24;99390.13;;;18.72;52.88
21728;BME280;11026;50.560;17.852;2023-08-08T10:51:51;99381.31;;;18.36;53.60
21728;BME280;11026;50.560;17.852;2023-08-08T10:54:22;99374.28;;;18.35;53.81
21728;BME280;11026;50.560;17.852;2023-08-08T10:56:56;99379.88;;;18.32;54.36
21728;BME280;11026;50.560;17.852;2023-08-08T10:59:36;99376.72;;;18.38;55.37
21728;BME280;11026;50.560;17.852;2023-08-08T11:02:04;99381.81;;;18.30;54.74
21728;BME280;11026;50.560;17.852;2023-08-08T11:04:37;99383.78;;;18.39;55.64
21728;BME280;11026;50.560;17.852;2023-08-08T11:07:05;99375.34;;;18.10;53.60
21728;BME280;11026;50.560;17.852;2023-08-08T11:09:39;99381.81;;;18.19;53.88
21728;BME280;11026;50.560;17.852;2023-08-08T11:12:28;99391.19;;;18.25;55.10
21728;BME280;11026;50.560;17.852;2023-08-08T11:14:55;99378.91;;;18.22;55.19
21728;BME280;11026;50.560;17.852;2023-08-08T11:17:25;99382.25;;;17.90;54.65
21728;BME280;11026;50.560;17.852;2023-08-08T11:19:54;99372.03;;;17.96;54.60
21728;BME280;11026;50.560;17.852;2023-08-08T11:22:22;99377.16;;;17.99;56.51
21728;BME280;11026;50.560;17.852;2023-08-08T11:24:50;99372.78;;;18.09;55.68
21728;BME280;11026;50.560;17.852;2023-08-08T11:27:18;99378.00;;;17.99;57.33
21728;BME280;11026;50.560;17.852;2023-08-08T11:29:51;99380.63;;;17.88;53.29
21728;BME280;11026;50.560;17.852;2023-08-08T11:32:19;99388.28;;;17.81;54.13
21728;BME280;11026;50.560;17.852;2023-08-08T11:34:47;99385.38;;;17.84;55.67
21728;BME280;11026;50.560;17.852;2023-08-08T11:37:15;99387.06;;;17.85;56.28
21728;BME280;11026;50.560;17.852;2023-08-08T11:39:42;99383.16;;;18.13;56.60
21728;BME280;11026;50.560;17.852;2023-08-08T11:42:12;99374.25;;;18.24;56.83
21728;BME280;11026;50.560;17.852;2023-08-08T11:44:42;99377.44;;;18.18;55.45
21728;BME280;11026;50.560;17.852;2023-08-08T11:47:09;99373.81;;;18.41;55.74
21728;BME280;11026;50.560;17.852;2023-08-08T11:49:41;99372.91;;;19.08;55.31
21728;BME280;11026;50.560;17.852;2023-08-08T11:52:09;99365.78;;;19.30;55.81
21728;BME280;11026;50.560;17.852;2023-08-08T11:54:37;99362.22;;;19.40;56.04
21728;BME280;11026;50.560;17.852;2023-08-08T11:57:06;99353.91;;;19.44;54.38
21728;BME280;11026;50.560;17.852;2023-08-08T11:59:35;99370.44;;;19.92;52.71
21728;BME280;11026;50.560;17.852;2023-08-08T12:02:03;99364.78;;;20.16;52.80
21728;BME280;11026;50.560;17.852;2023-08-08T12:04:33;99365.75;;;20.36;51.83
21728;BME280;11026;50.560;17.852;2023-08-08T12:07:03;99367.41;;;20.27;49.23
21728;BME280;11026;50.560;17.852;2023-08-08T12:09:33;99358.38;;;20.38;50.56
21728;BME280;11026;50.560;17.852;2023-08-08T12:12:05;99361.13;;;20.17;49.45
21728;BME280;11026;50.560;17.852;2023-08-08T12:14:39;99348.97;;;20.23;48.31
21728;BME280;11026;50.560;17.852;2023-08-08T12:17:22;99366.81;;;19.82;49.23
21728;BME280;11026;50.560;17.852;2023-08-08T12:19:50;99370.50;;;19.81;50.61
21728;BME280;11026;50.560;17.852;2023-08-08T12:22:17;99357.66;;;20.05;51.41
21728;BME280;11026;50.560;17.852;2023-08-08T12:24:45;99355.63;;;19.98;49.39
21728;BME280;11026;50.560;17.852;2023-08-08T12:27:14;99359.88;;;20.21;50.83
21728;BME280;11026;50.560;17.852;2023-08-08T12:29:48;99360.84;;;20.20;50.40
21728;BME280;11026;50.560;17.852;2023-08-08T12:32:15;99366.97;;;19.80;49.64
21728;BME280;11026;50.560;17.852;2023-08-08T12:34:43;99362.91;;;19.54;51.29
21728;BME280;11026;50.560;17.852;2023-08-08T12:37:13;99356.22;;;19.48;51.27
21728;BME280;11026;50.560;17.852;2023-08-08T12:39:41;99374.69;;;19.30;51.89
21728;BME280;11026;50.560;17.852;2023-08-08T12:42:08;99366.69;;;19.08;52.44
21728;BME280;11026;50.560;17.852;2023-08-08T12:44:36;99364.75;;;19.10;51.50
21728;BME280;11026;50.560;17.852;2023-08-08T12:47:03;99372.06;;;19.08;52.54
21728;BME280;11026;50.560;17.852;2023-08-08T12:49:31;99351.00;;;19.03;54.30
21728;BME280;11026;50.560;17.852;2023-08-08T12:51:59;99360.38;;;19.09;53.29
21728;BME280;11026;50.560;17.852;2023-08-08T12:54:26;99373.09;;;19.28;53.13